Time;durP1;ratioP1;P1;durP2;ratioP2;P2;SDS_P1;SDS_P2;PMS_P1;PMS_P2;Temp;Humidity;BMP_temperature;BMP_pressure;BME280_temperature;BME280_humidity;BME280_pressure;Samples;Min_cycle;Max_cycle;Signal;HPM_P1;HPM_P2
2021/11/08 00:01:24;;;;;;;0.10;0.10;;;;;;;;;;5990637;23;20500;-86
2021/11/08 00:03:52;;;;;;;0.10;0.10;;;;;;;;;;6014148;23;20099;-86
2021/11/08 00:06:19;;;;;;;0.10;0.10;;;;;;;;;;6014196;23;20030;-86
2021/11/08 00:08:45;;;;;;;0.10;0.10;;;;;;;;;;6014219;23;20023;-87
2021/11/08 00:11:11;;;;;;;0.10;0.10;;;;;;;;;;5990571;23;20318;-87
2021/11/08 00:13:37;;;;;;;0.10;0.10;;;;;;;;;;6013842;23;20450;-87
2021/11/08 00:16:18;;;;;;;0.10;0.10;;;;;;;;;;6013702;23;20335;-87
2021/11/08 00:19:36;;;;;;;0.10;0.10;;;;;;;;;;5990744;23;20023;-87
2021/11/08 00:21:36;;;;;;;0.10;0.10;;;;;;;;;;6009616;23;20015;-87
2021/11/08 00:24:05;;;;;;;0.10;0.10;;;;;;;;;;6013834;23;20026;-86
2021/11/08 00:26:31;;;;;;;0.10;0.10;;;;;;;;;;6013706;23;20067;-87
2021/11/08 00:28:57;;;;;;;0.10;0.10;;;;;;;;;;6004335;23;20020;-87
2021/11/08 00:31:23;;;;;;;0.10;0.10;;;;;;;;;;5957991;24;20020;-87
2021/11/08 00:33:49;;;;;;;0.10;0.10;;;;;;;;;;5957965;24;20156;-87
2021/11/08 00:36:15;;;;;;;0.20;0.20;;;;;;;;;;5981211;24;20111;-87
2021/11/08 00:38:41;;;;;;;0.10;0.10;;;;;;;;;;5981383;24;20051;-87
2021/11/08 00:41:07;;;;;;;0.10;0.10;;;;;;;;;;5981072;24;20012;-86
2021/11/08 00:43:33;;;;;;;0.10;0.10;;;;;;;;;;5980825;24;20028;-87
2021/11/08 00:45:59;;;;;;;0.10;0.10;;;;;;;;;;5957641;24;20016;-86
2021/11/08 00:48:30;;;;;;;0.10;0.10;;;;;;;;;;5981007;24;20314;-87
2021/11/08 00:50:56;;;;;;;0.10;0.10;;;;;;;;;;5980982;24;20016;-87
2021/11/08 00:53:22;;;;;;;0.10;0.10;;;;;;;;;;5980525;24;20019;-87
2021/11/08 00:55:48;;;;;;;0.10;0.10;;;;;;;;;;5980964;24;20024;-87
2021/11/08 00:58:20;;;;;;;0.10;0.10;;;;;;;;;;5958035;24;20016;-87
2021/11/08 01:00:46;;;;;;;0.10;0.10;;;;;;;;;;5980950;24;20075;-86
2021/11/08 01:03:15;;;;;;;0.10;0.10;;;;;;;;;;5980795;24;20463;-86
2021/11/08 01:05:41;;;;;;;0.10;0.10;;;;;;;;;;5957539;24;20379;-87
2021/11/08 01:08:07;;;;;;;0.10;0.10;;;;;;;;;;5980602;24;20039;-86
2021/11/08 01:10:33;;;;;;;0.35;0.10;;;;;;;;;;5957638;24;20048;-87
2021/11/08 01:12:59;;;;;;;0.10;0.10;;;;;;;;;;5980856;24;20016;-86
2021/11/08 01:15:25;;;;;;;0.10;0.10;;;;;;;;;;5980645;24;20019;-86
2021/11/08 01:17:52;;;;;;;0.10;0.10;;;;;;;;;;5980844;24;20027;-87
2021/11/08 01:20:18;;;;;;;0.10;0.10;;;;;;;;;;5981116;24;20075;-87
2021/11/08 01:22:44;;;;;;;0.10;0.10;;;;;;;;;;5980519;24;20019;-87
2021/11/08 01:25:10;;;;;;;0.10;0.10;;;;;;;;;;5980691;24;20395;-87
2021/11/08 01:27:43;;;;;;;0.10;0.10;;;;;;;;;;5980368;23;20020;-87
2021/11/08 01:30:09;;;;;;;;;;;;;;;;;;5981107;24;20016;-87
2021/11/08 01:32:36;;;;;;;0.10;0.10;;;;;;;;;;5980620;24;19914;-87
2021/11/08 01:35:03;;;;;;;0.10;0.10;;;;;;;;;;5957194;24;20351;-87
2021/11/08 01:37:29;;;;;;;0.10;0.10;;;;;;;;;;5957327;24;20020;-87
2021/11/08 01:39:58;;;;;;;0.10;0.10;;;;;;;;;;5981031;24;20024;-87
2021/11/08 01:42:24;;;;;;;0.10;0.10;;;;;;;;;;5957269;24;20024;-86
2021/11/08 01:44:50;;;;;;;0.10;0.10;;;;;;;;;;5980626;24;20323;-87
2021/11/08 01:47:16;;;;;;;0.10;0.10;;;;;;;;;;5980424;24;20020;-87
2021/11/08 01:49:42;;;;;;;0.10;0.10;;;;;;;;;;5957212;24;20012;-87
2021/11/08 01:52:08;;;;;;;0.10;0.10;;;;;;;;;;5980455;24;20023;-87
2021/11/08 01:54:35;;;;;;;0.10;0.10;;;;;;;;;;5980511;24;20095;-87
2021/11/08 01:57:01;;;;;;;0.10;0.10;;;;;;;;;;5980541;24;20072;-87
2021/11/08 01:59:28;;;;;;;0.10;0.10;;;;;;;;;;5980476;24;20020;-87
2021/11/08 02:01:55;;;;;;;0.10;0.10;;;;;;;;;;5980606;24;20020;-87
2021/11/08 02:04:21;;;;;;;0.10;0.10;;;;;;;;;;5956928;24;20091;-87
2021/11/08 02:06:47;;;;;;;0.10;0.10;;;;;;;;;;5979864;24;20107;-87
2021/11/08 02:09:13;;;;;;;0.10;0.10;;;;;;;;;;5957483;24;20091;-87
2021/11/08 02:11:39;;;;;;;0.10;0.10;;;;;;;;;;5956979;24;20095;-87
2021/11/08 02:14:06;;;;;;;0.10;0.10;;;;;;;;;;5980201;24;20345;-86
2021/11/08 02:16:32;;;;;;;0.10;0.10;;;;;;;;;;5957062;24;20027;-87
2021/11/08 02:19:01;;;;;;;0.10;0.10;;;;;;;;;;5980125;24;20020;-87
2021/11/08 02:21:28;;;;;;;0.10;0.10;;;;;;;;;;5957007;24;20100;-87
2021/11/08 02:23:54;;;;;;;0.10;0.10;;;;;;;;;;5980174;24;20027;-87
2021/11/08 02:26:20;;;;;;;0.10;0.10;;;;;;;;;;5956946;24;20023;-87
2021/11/08 02:28:47;;;;;;;0.10;0.10;;;;;;;;;;5979876;23;20058;-87
2021/11/08 02:31:15;;;;;;;0.10;0.10;;;;;;;;;;5980042;24;20020;-87
2021/11/08 02:33:41;;;;;;;0.10;0.10;;;;;;;;;;5980084;24;20472;-87
2021/11/08 02:36:07;;;;;;;0.10;0.10;;;;;;;;;;5980013;24;20064;-87
2021/11/08 02:38:38;;;;;;;0.10;0.10;;;;;;;;;;5956928;24;20016;-86
2021/11/08 02:41:04;;;;;;;0.10;0.10;;;;;;;;;;5956877;24;20090;-87
2021/11/08 02:43:30;;;;;;;0.10;0.10;;;;;;;;;;5956646;24;20012;-87
2021/11/08 02:46:00;;;;;;;0.10;0.10;;;;;;;;;;5980053;24;20339;-87
2021/11/08 02:48:26;;;;;;;0.10;0.10;;;;;;;;;;5957244;24;20031;-87
2021/11/08 02:51:07;;;;;;;0.10;0.10;;;;;;;;;;5980088;24;20405;-87
2021/11/08 02:53:34;;;;;;;0.10;0.10;;;;;;;;;;5980067;24;20016;-87
2021/11/08 02:56:00;;;;;;;0.10;0.10;;;;;;;;;;5956696;24;20053;-87
2021/11/08 02:58:28;;;;;;;0.10;0.10;;;;;;;;;;5979912;24;20076;-87
2021/11/08 03:00:55;;;;;;;0.10;0.10;;;;;;;;;;5956875;24;20012;-87
2021/11/08 03:03:27;;;;;;;0.10;0.10;;;;;;;;;;5979762;24;20472;-87
2021/11/08 03:05:59;;;;;;;0.10;0.10;;;;;;;;;;5980214;24;20016;-87
2021/11/08 03:08:25;;;;;;;0.10;0.10;;;;;;;;;;5980221;24;20028;-87
2021/11/08 03:10:56;;;;;;;0.10;0.10;;;;;;;;;;5979900;24;20342;-87
2021/11/08 03:13:22;;;;;;;0.10;0.10;;;;;;;;;;5979932;24;20346;-87
2021/11/08 03:15:55;;;;;;;0.10;0.10;;;;;;;;;;5979867;24;20027;-87
2021/11/08 03:18:31;;;;;;;0.10;0.10;;;;;;;;;;5981830;24;20103;-87
2021/11/08 03:20:58;;;;;;;0.10;0.10;;;;;;;;;;5981938;24;20020;-87
2021/11/08 03:23:25;;;;;;;0.10;0.10;;;;;;;;;;5958450;24;20016;-87
2021/11/08 03:26:02;;;;;;;0.10;0.10;;;;;;;;;;5981748;24;20023;-87
2021/11/08 03:28:28;;;;;;;0.10;0.10;;;;;;;;;;5958424;24;20039;-87
2021/11/08 03:30:56;;;;;;;0.10;0.10;;;;;;;;;;5981879;24;20016;-87
2021/11/08 03:33:23;;;;;;;0.10;0.10;;;;;;;;;;5958334;24;20062;-87
2021/11/08 03:35:50;;;;;;;0.10;0.10;;;;;;;;;;5981518;24;20019;-87
2021/11/08 03:38:16;;;;;;;0.10;0.10;;;;;;;;;;5981476;24;20020;-87
2021/11/08 03:40:43;;;;;;;0.10;0.10;;;;;;;;;;5981604;24;20022;-87
2021/11/08 03:43:11;;;;;;;0.10;0.10;;;;;;;;;;5958201;24;20047;-87
2021/11/08 03:45:37;;;;;;;0.10;0.10;;;;;;;;;;5958305;24;20016;-87
2021/11/08 03:48:04;;;;;;;0.10;0.10;;;;;;;;;;5981409;24;20073;-87
2021/11/08 03:50:30;;;;;;;0.10;0.10;;;;;;;;;;5958361;24;20070;-87
2021/11/08 03:52:56;;;;;;;0.10;0.10;;;;;;;;;;5981418;24;20314;-86
2021/11/08 03:55:22;;;;;;;0.10;0.10;;;;;;;;;;5981636;24;20047;-86
2021/11/08 03:57:48;;;;;;;0.10;0.10;;;;;;;;;;5981624;24;20103;-86
2021/11/08 04:00:14;;;;;;;0.10;0.10;;;;;;;;;;5981286;24;20020;-86
2021/11/08 04:02:42;;;;;;;0.10;0.10;;;;;;;;;;5958199;24;20095;-86
2021/11/08 04:05:08;;;;;;;0.10;0.10;;;;;;;;;;5981293;24;20020;-86
2021/11/08 04:07:34;;;;;;;0.10;0.10;;;;;;;;;;5981518;24;20072;-86
2021/11/08 04:10:00;;;;;;;0.10;0.10;;;;;;;;;;5981634;24;20458;-86
2021/11/08 04:12:27;;;;;;;0.10;0.10;;;;;;;;;;5981433;24;20013;-85
2021/11/08 04:14:53;;;;;;;0.10;0.10;;;;;;;;;;5981440;24;20308;-86
2021/11/08 04:17:21;;;;;;;0.10;0.10;;;;;;;;;;5958243;24;20451;-86
2021/11/08 04:19:47;;;;;;;0.10;0.10;;;;;;;;;;5958138;24;20024;-86
2021/11/08 04:22:13;;;;;;;0.10;0.10;;;;;;;;;;5981310;24;20020;-85
2021/11/08 04:24:42;;;;;;;0.10;0.10;;;;;;;;;;5958121;24;20016;-86
2021/11/08 04:27:09;;;;;;;0.10;0.10;;;;;;;;;;5961654;23;20358;-85
2021/11/08 04:29:35;;;;;;;0.10;0.10;;;;;;;;;;6013716;23;20020;-86
2021/11/08 04:32:01;;;;;;;0.10;0.10;;;;;;;;;;6014327;23;20019;-86
2021/11/08 04:34:50;;;;;;;0.10;0.10;;;;;;;;;;6013875;23;20022;-86
2021/11/08 04:40:06;;;;;;;0.10;0.10;;;;;;;;;;6013909;23;20031;-86
2021/11/08 04:42:39;;;;;;;0.10;0.10;;;;;;;;;;6014009;23;20023;-86
2021/11/08 04:45:22;;;;;;;0.10;0.10;;;;;;;;;;6014028;23;20099;-86
2021/11/08 04:48:05;;;;;;;0.10;0.10;;;;;;;;;;5990635;23;20019;-86
2021/11/08 04:50:47;;;;;;;0.10;0.10;;;;;;;;;;6014119;23;20019;-86
2021/11/08 05:22:57;;;;;;;0.10;0.10;;;;;;;;;;6013397;23;20444;-86
2021/11/08 05:27:49;;;;;;;0.10;0.10;;;;;;;;;;6013679;23;20072;-86
2021/11/08 05:30:41;;;;;;;0.10;0.10;;;;;;;;;;6013567;23;20395;-86
2021/11/08 05:33:07;;;;;;;0.10;0.10;;;;;;;;;;5989749;23;20342;-86
2021/11/08 05:35:33;;;;;;;0.10;0.10;;;;;;;;;;5990200;23;20017;-86
2021/11/08 05:37:59;;;;;;;0.10;0.10;;;;;;;;;;6013494;23;20015;-86
2021/11/08 05:40:34;;;;;;;0.10;0.10;;;;;;;;;;6012763;23;20015;-87
2021/11/08 05:43:02;;;;;;;0.10;0.10;;;;;;;;;;6013228;23;20020;-86
2021/11/08 05:45:33;;;;;;;0.10;0.10;;;;;;;;;;5989965;23;20026;-87
2021/11/08 05:48:00;;;;;;;0.10;0.10;;;;;;;;;;6013164;23;20071;-87
2021/11/08 05:50:25;;;;;;;0.10;0.10;;;;;;;;;;6013566;23;20023;-87
2021/11/08 05:52:53;;;;;;;0.10;0.10;;;;;;;;;;6013187;23;20019;-87
2021/11/08 05:55:19;;;;;;;0.10;0.10;;;;;;;;;;6013419;23;20015;-87
2021/11/08 05:57:52;;;;;;;0.10;0.10;;;;;;;;;;6013458;23;20051;-87
2021/11/08 06:01:24;;;;;;;0.10;0.10;;;;;;;;;;6013198;23;20457;-87
2021/11/08 06:49:52;;;;;;;0.10;0.10;;;;;;;;;;6012947;23;20408;-87
2021/11/08 06:52:19;;;;;;;0.10;0.10;;;;;;;;;;5989278;23;20015;-87
2021/11/08 06:54:47;;;;;;;0.10;0.10;;;;;;;;;;6012833;23;20015;-86
2021/11/08 06:57:17;;;;;;;0.10;0.10;;;;;;;;;;6013000;23;20020;-88
2021/11/08 06:59:44;;;;;;;0.10;0.10;;;;;;;;;;6013013;23;20019;-90
2021/11/08 07:02:10;;;;;;;0.10;0.10;;;;;;;;;;6013121;23;20071;-88
2021/11/08 07:04:37;;;;;;;0.10;0.10;;;;;;;;;;6012642;23;20073;-88
2021/11/08 07:07:05;;;;;;;0.10;0.10;;;;;;;;;;6012690;23;20015;-86
2021/11/08 07:09:31;;;;;;;0.10;0.10;;;;;;;;;;6012718;23;20022;-87
2021/11/08 07:11:57;;;;;;;0.10;0.10;;;;;;;;;;6012890;23;20011;-86
2021/11/08 07:14:23;;;;;;;0.10;0.10;;;;;;;;;;6012780;23;20011;-88
2021/11/08 07:16:49;;;;;;;0.10;0.10;;;;;;;;;;6012802;23;20090;-89
2021/11/08 07:19:15;;;;;;;0.10;0.10;;;;;;;;;;5989272;23;20015;-88
2021/11/08 07:21:41;;;;;;;0.10;0.10;;;;;;;;;;5989825;23;20019;-91
2021/11/08 07:24:07;;;;;;;0.10;0.10;;;;;;;;;;5989236;23;20409;-89
2021/11/08 07:26:33;;;;;;;0.10;0.10;;;;;;;;;;5989421;23;20023;-91
2021/11/08 07:28:59;;;;;;;0.10;0.10;;;;;;;;;;6012545;23;20036;-86
2021/11/08 07:31:25;;;;;;;0.10;0.10;;;;;;;;;;6012704;23;20011;-88
2021/11/08 07:33:51;;;;;;;0.10;0.10;;;;;;;;;;6012862;23;20015;-86
2021/11/08 07:36:17;;;;;;;0.10;0.10;;;;;;;;;;6012320;23;20508;-87
2021/11/08 07:38:43;;;;;;;0.10;0.10;;;;;;;;;;6012887;23;20016;-87
2021/11/08 07:41:10;;;;;;;0.10;0.10;;;;;;;;;;6012754;23;20033;-86
2021/11/08 07:43:37;;;;;;;0.10;0.10;;;;;;;;;;6012346;23;20349;-87
2021/11/08 07:46:03;;;;;;;0.10;0.10;;;;;;;;;;5989200;23;20015;-88
2021/11/08 07:48:29;;;;;;;0.10;0.10;;;;;;;;;;6012554;23;20026;-87
2021/11/08 07:50:58;;;;;;;0.10;0.10;;;;;;;;;;6038108;23;20023;-88
2021/11/08 07:53:24;;;;;;;0.10;0.10;;;;;;;;;;6012695;23;20072;-88
2021/11/08 07:55:50;;;;;;;0.10;0.10;;;;;;;;;;6012465;23;20342;-87
2021/11/08 07:58:16;;;;;;;0.10;0.10;;;;;;;;;;6012758;23;20413;-89
2021/11/08 08:00:43;;;;;;;0.10;0.10;;;;;;;;;;6012547;23;20164;-88
2021/11/08 08:03:10;;;;;;;0.10;0.10;;;;;;;;;;6012708;23;20030;-87
2021/11/08 08:05:36;;;;;;;0.10;0.10;;;;;;;;;;5991008;23;20040;-92
2021/11/08 08:08:02;;;;;;;0.10;0.10;;;;;;;;;;5990558;23;20098;-87
2021/11/08 08:10:28;;;;;;;0.10;0.10;;;;;;;;;;5990901;23;20472;-87
2021/11/08 08:12:54;;;;;;;0.10;0.10;;;;;;;;;;6013908;23;20091;-87
2021/11/08 08:15:20;;;;;;;0.10;0.10;;;;;;;;;;6014232;23;20449;-87
2021/11/08 08:17:46;;;;;;;0.10;0.10;;;;;;;;;;6014456;23;20011;-88
2021/11/08 08:20:13;;;;;;;0.10;0.10;;;;;;;;;;6014006;23;20026;-87
2021/11/08 08:22:39;;;;;;;0.10;0.10;;;;;;;;;;6013977;23;20022;-87
2021/11/08 08:25:05;;;;;;;0.10;0.10;;;;;;;;;;6014083;23;20465;-87
2021/11/08 08:27:31;;;;;;;0.10;0.10;;;;;;;;;;6013742;23;20094;-87
2021/11/08 08:29:57;;;;;;;0.10;0.10;;;;;;;;;;6014039;23;20020;-87
2021/11/08 08:32:24;;;;;;;0.10;0.10;;;;;;;;;;6014039;23;20016;-87
2021/11/08 08:34:50;;;;;;;0.10;0.10;;;;;;;;;;6014021;23;20034;-88
2021/11/08 08:37:17;;;;;;;0.10;0.10;;;;;;;;;;6014248;23;20382;-88
2021/11/08 08:39:43;;;;;;;0.10;0.10;;;;;;;;;;5990818;23;20344;-88
2021/11/08 08:42:09;;;;;;;0.10;0.10;;;;;;;;;;6014415;23;20019;-88
2021/11/08 08:44:35;;;;;;;0.10;0.10;;;;;;;;;;6013800;23;20467;-87
2021/11/08 08:47:01;;;;;;;0.10;0.10;;;;;;;;;;6013789;23;20015;-87
2021/11/08 08:49:27;;;;;;;0.10;0.10;;;;;;;;;;5988798;23;20533;-88
2021/11/08 08:51:53;;;;;;;0.10;0.10;;;;;;;;;;6013715;23;20017;-89
2021/11/08 08:54:19;;;;;;;0.10;0.10;;;;;;;;;;6013703;23;20319;-88
2021/11/08 08:56:46;;;;;;;0.10;0.10;;;;;;;;;;6013872;23;20015;-88
2021/11/08 08:59:12;;;;;;;0.10;0.10;;;;;;;;;;5990219;23;20023;-89
2021/11/08 09:01:38;;;;;;;0.10;0.10;;;;;;;;;;6013684;23;20016;-88
2021/11/08 09:04:04;;;;;;;0.10;0.10;;;;;;;;;;6013750;23;20015;-89
2021/11/08 09:06:30;;;;;;;0.10;0.10;;;;;;;;;;6013708;23;20015;-89
2021/11/08 09:08:56;;;;;;;0.10;0.10;;;;;;;;;;6013730;23;20072;-88
2021/11/08 09:11:23;;;;;;;0.10;0.10;;;;;;;;;;6013616;23;20011;-88
2021/11/08 09:13:49;;;;;;;0.10;0.10;;;;;;;;;;6013679;23;20011;-88
2021/11/08 09:16:15;;;;;;;0.10;0.10;;;;;;;;;;6013766;23;20151;-88
2021/11/08 09:18:43;;;;;;;0.10;0.10;;;;;;;;;;6013610;23;20083;-88
2021/11/08 09:21:09;;;;;;;0.10;0.10;;;;;;;;;;5990149;23;20011;-89
2021/11/08 09:23:36;;;;;;;0.10;0.10;;;;;;;;;;6013533;23;20015;-88
2021/11/08 09:26:02;;;;;;;0.10;0.10;;;;;;;;;;6013443;23;20016;-88
2021/11/08 09:28:28;;;;;;;0.10;0.10;;;;;;;;;;6013312;23;20110;-88
2021/11/08 09:30:54;;;;;;;0.10;0.10;;;;;;;;;;6013572;23;20019;-87
2021/11/08 09:33:20;;;;;;;0.10;0.10;;;;;;;;;;6013627;23;20295;-87
2021/11/08 09:35:48;;;;;;;0.10;0.10;;;;;;;;;;6013656;23;20015;-87
2021/11/08 09:38:14;;;;;;;0.10;0.10;;;;;;;;;;6011320;23;20426;-87
2021/11/08 09:40:40;;;;;;;0.10;0.10;;;;;;;;;;5989738;23;20856;-87
2021/11/08 09:43:08;;;;;;;0.25;0.17;;;;;;;;;;6013117;23;20026;-87
2021/11/08 09:45:34;;;;;;;0.10;0.10;;;;;;;;;;6013283;23;20015;-87
2021/11/08 09:48:02;;;;;;;0.10;0.10;;;;;;;;;;6013167;23;20106;-87
2021/11/08 09:50:30;;;;;;;0.10;0.10;;;;;;;;;;6013416;23;20297;-87
2021/11/08 09:52:55;;;;;;;0.10;0.10;;;;;;;;;;5989710;23;20015;-88
2021/11/08 09:55:22;;;;;;;0.10;0.10;;;;;;;;;;6013171;23;20022;-87
2021/11/08 09:57:48;;;;;;;0.10;0.10;;;;;;;;;;5989881;23;20026;-87
2021/11/08 10:00:15;;;;;;;0.10;0.10;;;;;;;;;;6013082;23;20099;-87
2021/11/08 10:02:41;;;;;;;0.10;0.10;;;;;;;;;;6012952;23;20167;-87
2021/11/08 10:05:08;;;;;;;0.10;0.10;;;;;;;;;;6013260;23;20027;-87
2021/11/08 10:07:33;;;;;;;0.10;0.10;;;;;;;;;;6012919;23;20019;-87
2021/11/08 10:10:01;;;;;;;0.10;0.10;;;;;;;;;;6013105;23;20075;-87
2021/11/08 10:12:26;;;;;;;0.10;0.10;;;;;;;;;;5989531;23;20011;-87
2021/11/08 10:14:52;;;;;;;0.10;0.10;;;;;;;;;;6013152;23;20090;-87
2021/11/08 10:17:19;;;;;;;0.10;0.10;;;;;;;;;;6013289;23;20023;-87
2021/11/08 10:19:45;;;;;;;0.10;0.10;;;;;;;;;;6013209;23;20347;-87
2021/11/08 10:22:11;;;;;;;0.10;0.10;;;;;;;;;;5989555;23;20091;-88
2021/11/08 10:24:38;;;;;;;0.10;0.10;;;;;;;;;;6012886;23;20027;-87
2021/11/08 10:27:07;;;;;;;0.10;0.10;;;;;;;;;;5989091;23;20112;-87
2021/11/08 10:29:33;;;;;;;0.10;0.10;;;;;;;;;;5990009;23;20024;-87
2021/11/08 10:32:02;;;;;;;0.10;0.10;;;;;;;;;;6013497;23;20012;-88
2021/11/08 10:34:29;;;;;;;0.10;0.10;;;;;;;;;;6023038;23;20047;-87
2021/11/08 10:36:56;;;;;;;0.10;0.10;;;;;;;;;;6021002;23;20043;-86
2021/11/08 10:39:22;;;;;;;0.10;0.10;;;;;;;;;;6018784;23;20086;-87
2021/11/08 10:41:48;;;;;;;0.10;0.10;;;;;;;;;;6012980;23;20074;-86
2021/11/08 10:44:16;;;;;;;0.10;0.10;;;;;;;;;;6012723;23;20011;-87
2021/11/08 10:46:43;;;;;;;0.10;0.10;;;;;;;;;;6012857;23;20022;-86
2021/11/08 10:49:12;;;;;;;0.10;0.10;;;;;;;;;;6012556;23;20418;-86
2021/11/08 10:51:39;;;;;;;0.10;0.10;;;;;;;;;;6012793;23;20047;-85
2021/11/08 10:54:08;;;;;;;0.10;0.10;;;;;;;;;;6012652;23;20015;-85
2021/11/08 10:56:41;;;;;;;0.10;0.10;;;;;;;;;;6012851;23;20026;-84
2021/11/08 10:59:11;;;;;;;0.10;0.10;;;;;;;;;;6012765;23;20016;-84
2021/11/08 11:01:44;;;;;;;0.10;0.10;;;;;;;;;;6012711;23;20505;-85
2021/11/08 11:04:10;;;;;;;0.10;0.10;;;;;;;;;;6036686;23;20144;-84
2021/11/08 11:06:47;;;;;;;1.65;1.50;;;;;;;;;;6012567;23;20018;-85
2021/11/08 11:09:15;;;;;;;0.10;0.10;;;;;;;;;;6012782;23;20019;-85
2021/11/08 11:11:41;;;;;;;0.10;0.10;;;;;;;;;;5987005;23;20442;-86
2021/11/08 11:14:07;;;;;;;0.10;0.10;;;;;;;;;;6037714;23;20046;-86
2021/11/08 11:16:36;;;;;;;0.10;0.10;;;;;;;;;;6012687;23;20424;-86
2021/11/08 11:19:07;;;;;;;0.10;0.10;;;;;;;;;;5989439;23;20042;-85
2021/11/08 11:21:34;;;;;;;0.10;0.10;;;;;;;;;;5989379;23;20035;-86
2021/11/08 11:24:03;;;;;;;0.10;0.10;;;;;;;;;;6012627;23;20431;-85
2021/11/08 11:26:30;;;;;;;0.10;0.10;;;;;;;;;;6012452;23;20022;-85
2021/11/08 11:28:56;;;;;;;0.10;0.10;;;;;;;;;;5961568;24;20024;-86
2021/11/08 11:31:23;;;;;;;0.10;0.10;;;;;;;;;;5980039;24;20017;-86
2021/11/08 11:33:52;;;;;;;0.10;0.10;;;;;;;;;;5979967;24;20017;-85
2021/11/08 11:36:19;;;;;;;0.10;0.10;;;;;;;;;;5956745;24;20020;-86
2021/11/08 11:39:12;;;;;;;0.10;0.10;;;;;;;;;;5957775;24;20090;-86
2021/11/08 11:41:40;;;;;;;0.10;0.10;;;;;;;;;;5979845;24;20070;-86
2021/11/08 11:44:12;;;;;;;0.28;0.28;;;;;;;;;;5981532;24;20017;-85
2021/11/08 11:46:42;;;;;;;0.10;0.10;;;;;;;;;;5981506;24;20118;-87
2021/11/08 11:49:08;;;;;;;0.10;0.10;;;;;;;;;;5981538;24;20415;-85
2021/11/08 11:51:36;;;;;;;0.10;0.10;;;;;;;;;;5981336;24;20446;-85
2021/11/08 11:54:02;;;;;;;0.10;0.10;;;;;;;;;;5981062;24;20474;-84
2021/11/08 11:56:28;;;;;;;0.10;0.10;;;;;;;;;;5981322;24;20112;-86
2021/11/08 11:58:54;;;;;;;0.10;0.10;;;;;;;;;;5981462;24;20087;-84
2021/11/08 12:01:21;;;;;;;0.10;0.10;;;;;;;;;;5981333;24;20074;-84
2021/11/08 12:03:47;;;;;;;0.10;0.10;;;;;;;;;;5981124;24;20557;-83
2021/11/08 12:06:14;;;;;;;0.10;0.10;;;;;;;;;;5957961;24;20012;-84
2021/11/08 12:08:40;;;;;;;0.10;0.10;;;;;;;;;;5981191;24;20028;-84
2021/11/08 12:11:07;;;;;;;0.10;0.10;;;;;;;;;;5981211;24;20027;-84
2021/11/08 12:13:35;;;;;;;0.10;0.10;;;;;;;;;;5981172;24;20016;-86
2021/11/08 12:16:11;;;;;;;0.10;0.10;;;;;;;;;;5957750;24;20017;-85
2021/11/08 12:18:37;;;;;;;0.10;0.10;;;;;;;;;;5980955;24;20320;-85
2021/11/08 12:21:03;;;;;;;0.10;0.10;;;;;;;;;;5981122;24;20020;-85
2021/11/08 12:23:30;;;;;;;0.10;0.10;;;;;;;;;;6004130;23;20020;-85
2021/11/08 12:25:56;;;;;;;0.10;0.10;;;;;;;;;;5957877;24;20076;-85
2021/11/08 12:28:26;;;;;;;0.10;0.10;;;;;;;;;;5980875;23;20081;-85
2021/11/08 12:30:56;;;;;;;0.10;0.10;;;;;;;;;;5980903;24;20040;-85
2021/11/08 12:33:32;;;;;;;0.10;0.10;;;;;;;;;;5980997;24;20012;-85
2021/11/08 12:36:11;;;;;;;0.10;0.10;;;;;;;;;;5981257;24;20076;-85
2021/11/08 12:38:38;;;;;;;0.10;0.10;;;;;;;;;;5980985;24;20027;-85
2021/11/08 12:41:20;;;;;;;0.10;0.10;;;;;;;;;;5981182;24;20012;-85
2021/11/08 12:43:50;;;;;;;0.10;0.10;;;;;;;;;;5957576;24;20016;-86
2021/11/08 12:46:17;;;;;;;0.10;0.10;;;;;;;;;;5980319;24;20469;-85
2021/11/08 12:48:43;;;;;;;0.10;0.10;;;;;;;;;;5981077;24;20058;-85
2021/11/08 12:51:09;;;;;;;0.10;0.10;;;;;;;;;;5957493;24;20020;-86
2021/11/08 12:53:36;;;;;;;0.10;0.10;;;;;;;;;;5980806;24;20022;-87
2021/11/08 12:56:07;;;;;;;0.10;0.10;;;;;;;;;;5980857;24;20020;-87
2021/11/08 12:58:37;;;;;;;0.10;0.10;;;;;;;;;;5957458;24;20080;-89
2021/11/08 13:01:04;;;;;;;0.10;0.10;;;;;;;;;;5980767;24;20012;-87
2021/11/08 13:03:39;;;;;;;0.10;0.10;;;;;;;;;;5957841;24;20367;-90
2021/11/08 13:06:06;;;;;;;0.20;0.20;;;;;;;;;;5980988;24;20080;-89
2021/11/08 13:08:33;;;;;;;3.90;0.10;;;;;;;;;;5957483;24;20510;-88
2021/11/08 13:11:06;;;;;;;0.10;0.10;;;;;;;;;;5957387;24;20091;-88
2021/11/08 13:13:32;;;;;;;0.10;0.10;;;;;;;;;;5957420;24;20016;-87
2021/11/08 13:16:16;;;;;;;0.10;0.10;;;;;;;;;;5957324;24;20354;-87
2021/11/08 13:18:43;;;;;;;0.10;0.10;;;;;;;;;;5980697;24;20105;-86
2021/11/08 13:21:10;;;;;;;0.10;0.10;;;;;;;;;;5980548;24;20414;-87
2021/11/08 13:23:38;;;;;;;0.10;0.10;;;;;;;;;;5980480;24;20023;-87
2021/11/08 13:26:04;;;;;;;0.10;0.10;;;;;;;;;;5980417;24;20020;-87
2021/11/08 13:28:34;;;;;;;0.10;0.10;;;;;;;;;;5980429;23;20027;-88
2021/11/08 13:31:05;;;;;;;0.10;0.10;;;;;;;;;;5980833;24;20027;-89
2021/11/08 13:33:35;;;;;;;0.10;0.10;;;;;;;;;;5980802;24;20012;-89
2021/11/08 13:36:01;;;;;;;0.10;0.10;;;;;;;;;;5981340;24;20046;-89
2021/11/08 13:38:34;;;;;;;0.10;0.10;;;;;;;;;;5955993;24;20016;-90
2021/11/08 13:41:04;;;;;;;0.10;0.10;;;;;;;;;;5957630;24;20039;-89
2021/11/08 13:43:36;;;;;;;0.13;0.13;;;;;;;;;;5980671;24;20016;-89
2021/11/08 13:46:03;;;;;;;0.10;0.10;;;;;;;;;;5980902;24;20020;-88
2021/11/08 13:48:31;;;;;;;0.10;0.10;;;;;;;;;;5957310;24;20042;-88
2021/11/08 13:51:01;;;;;;;0.10;0.10;;;;;;;;;;5980416;24;20023;-87
2021/11/08 13:53:28;;;;;;;0.10;0.10;;;;;;;;;;5980607;24;20379;-87
2021/11/08 13:55:55;;;;;;;0.10;0.10;;;;;;;;;;5980307;24;20016;-88
2021/11/08 13:58:21;;;;;;;0.15;0.15;;;;;;;;;;5980474;24;20517;-87
2021/11/08 14:00:47;;;;;;;0.20;0.20;;;;;;;;;;5980020;24;20341;-87
2021/11/08 14:03:14;;;;;;;0.10;0.10;;;;;;;;;;5979929;24;20099;-87
2021/11/08 14:05:50;;;;;;;0.10;0.10;;;;;;;;;;5980450;24;20020;-89
2021/11/08 14:08:19;;;;;;;0.10;0.10;;;;;;;;;;5980242;24;20411;-88
2021/11/08 14:10:52;;;;;;;0.10;0.10;;;;;;;;;;5980169;24;20012;-88
2021/11/08 14:13:18;;;;;;;0.10;0.10;;;;;;;;;;5980218;24;20016;-87
2021/11/08 14:15:44;;;;;;;0.10;0.10;;;;;;;;;;5980115;24;20112;-87
2021/11/08 14:18:20;;;;;;;0.10;0.10;;;;;;;;;;5980154;24;20019;-87
2021/11/08 14:20:46;;;;;;;0.10;0.10;;;;;;;;;;5980234;24;20445;-87
2021/11/08 14:23:12;;;;;;;0.10;0.10;;;;;;;;;;5979982;24;20393;-87
2021/11/08 14:25:39;;;;;;;0.10;0.10;;;;;;;;;;5980274;24;20024;-88
2021/11/08 14:28:05;;;;;;;0.10;0.10;;;;;;;;;;5979732;23;20465;-87
2021/11/08 14:30:31;;;;;;;0.10;0.10;;;;;;;;;;5980390;24;20083;-87
2021/11/08 14:32:58;;;;;;;0.10;0.10;;;;;;;;;;5979925;24;20016;-86
2021/11/08 14:35:28;;;;;;;0.10;0.10;;;;;;;;;;5980112;24;20043;-86
2021/11/08 14:38:02;;;;;;;0.10;0.10;;;;;;;;;;5980318;24;20046;-86
2021/11/08 14:40:35;;;;;;;0.10;0.10;;;;;;;;;;5979974;24;20027;-86
2021/11/08 14:43:01;;;;;;;;;;;;;;;;;;5957210;24;20322;-87
2021/11/08 14:45:30;;;;;;;0.10;0.10;;;;;;;;;;5979974;24;19915;-87
2021/11/08 14:48:00;;;;;;;0.10;0.10;;;;;;;;;;5956619;24;20027;-89
2021/11/08 14:50:29;;;;;;;0.10;0.10;;;;;;;;;;5979882;24;20446;-88
2021/11/08 14:52:55;;;;;;;0.10;0.10;;;;;;;;;;5979990;24;20012;-87
2021/11/08 14:55:23;;;;;;;0.10;0.10;;;;;;;;;;5979780;24;20179;-87
2021/11/08 14:57:49;;;;;;;0.10;0.10;;;;;;;;;;5980018;24;20062;-87
2021/11/08 15:00:21;;;;;;;0.10;0.10;;;;;;;;;;5980166;24;20406;-88
2021/11/08 15:02:48;;;;;;;0.10;0.10;;;;;;;;;;5958195;24;20039;-88
2021/11/08 15:05:16;;;;;;;0.10;0.10;;;;;;;;;;5980598;24;20343;-87
2021/11/08 15:07:42;;;;;;;1.80;0.25;;;;;;;;;;5994688;24;20095;-87
2021/11/08 15:10:13;;;;;;;0.10;0.10;;;;;;;;;;6002783;24;20031;-88
2021/11/08 15:12:40;;;;;;;0.10;0.10;;;;;;;;;;5981561;24;20063;-88
2021/11/08 15:15:09;;;;;;;0.10;0.10;;;;;;;;;;5983253;24;20012;-88
2021/11/08 15:17:59;;;;;;;0.10;0.10;;;;;;;;;;5983165;24;20016;-88
2021/11/08 15:20:25;;;;;;;0.10;0.10;;;;;;;;;;5959456;24;20016;-88
2021/11/08 15:22:53;;;;;;;0.10;0.10;;;;;;;;;;5982875;24;20458;-88
2021/11/08 15:25:21;;;;;;;0.10;0.10;;;;;;;;;;5982832;24;20327;-88
2021/11/08 15:27:57;;;;;;;0.10;0.10;;;;;;;;;;5996893;23;20345;-88
2021/11/08 15:30:27;;;;;;;0.10;0.10;;;;;;;;;;6015842;23;20509;-90
2021/11/08 15:33:02;;;;;;;0.10;0.10;;;;;;;;;;6016130;23;20448;-89
2021/11/08 15:35:35;;;;;;;0.10;0.10;;;;;;;;;;6015699;23;20463;-91
2021/11/08 15:38:01;;;;;;;0.10;0.10;;;;;;;;;;5992084;23;20019;-88
2021/11/08 15:40:27;;;;;;;0.10;0.10;;;;;;;;;;6015434;23;20038;-88
2021/11/08 15:42:53;;;;;;;0.10;0.10;;;;;;;;;;6015328;23;20019;-87
2021/11/08 15:45:19;;;;;;;0.10;0.10;;;;;;;;;;6015136;23;20042;-87
2021/11/08 15:47:52;;;;;;;0.10;0.10;;;;;;;;;;6015141;23;20024;-87
2021/11/08 15:50:18;;;;;;;0.10;0.10;;;;;;;;;;6015312;23;20136;-87
2021/11/08 15:52:44;;;;;;;0.10;0.10;;;;;;;;;;6015045;23;20436;-87
2021/11/08 15:55:10;;;;;;;0.10;0.10;;;;;;;;;;6015125;23;20069;-88
2021/11/08 15:57:36;;;;;;;0.10;0.10;;;;;;;;;;6015140;23;20086;-87
2021/11/08 16:00:03;;;;;;;0.10;0.10;;;;;;;;;;6015166;23;20075;-88
2021/11/08 16:02:35;;;;;;;0.10;0.10;;;;;;;;;;6015151;23;20011;-87
2021/11/08 16:05:03;;;;;;;0.10;0.10;;;;;;;;;;6014766;23;20070;-87
2021/11/08 16:07:29;;;;;;;0.10;0.10;;;;;;;;;;5991180;23;20051;-88
2021/11/08 16:09:55;;;;;;;0.10;0.10;;;;;;;;;;5991302;23;20075;-88